createdAt,value
2019-05-05T00:00:01.062Z,7.53
2019-05-05T00:05:01.042Z,7.50
2019-05-05T00:10:01.063Z,7.50
2019-05-05T00:15:01.081Z,7.47
2019-05-05T00:20:01.058Z,7.46
2019-05-05T00:25:01.070Z,7.47
2019-05-05T00:30:01.075Z,7.51
2019-05-05T00:35:01.476Z,7.50
2019-05-05T00:40:01.041Z,7.51
2019-05-05T00:45:01.067Z,7.50
2019-05-05T00:50:01.392Z,7.52
2019-05-05T00:55:01.419Z,7.51
2019-05-05T01:00:01.082Z,7.52
2019-05-05T01:05:01.442Z,7.51
2019-05-05T01:10:01.063Z,7.48
2019-05-05T01:15:01.084Z,7.48
2019-05-05T01:20:04.100Z,7.43
2019-05-05T01:25:01.409Z,7.40
2019-05-05T01:30:01.076Z,7.38
2019-05-05T01:35:01.439Z,7.37
2019-05-05T01:40:01.073Z,7.42
2019-05-05T01:45:01.059Z,7.44
2019-05-05T01:50:08.209Z,7.47
2019-05-05T01:55:01.060Z,7.58
2019-05-05T02:00:01.095Z,7.59
2019-05-05T02:05:01.054Z,7.44
2019-05-05T02:10:01.387Z,7.40
2019-05-05T02:15:01.482Z,7.33
2019-05-05T02:20:01.532Z,7.26
2019-05-05T02:25:01.091Z,7.06
2019-05-05T02:30:01.060Z,7.15
2019-05-05T02:35:01.055Z,7.19
2019-05-05T02:40:06.228Z,7.08
2019-05-05T02:45:01.526Z,6.93
2019-05-05T02:50:01.052Z,6.79
2019-05-05T02:55:01.513Z,6.57
2019-05-05T03:00:01.067Z,6.65
2019-05-05T03:05:01.368Z,6.57
2019-05-05T03:10:01.063Z,6.50
2019-05-05T03:15:01.429Z,6.47
2019-05-05T03:20:01.051Z,6.34
2019-05-05T03:25:01.028Z,6.23
2019-05-05T03:30:01.048Z,6.15
2019-05-05T03:35:01.058Z,6.04
2019-05-05T03:40:01.051Z,6.03
2019-05-05T03:45:01.092Z,6.00
2019-05-05T03:50:01.078Z,5.93
2019-05-05T03:55:01.053Z,5.85
2019-05-05T04:00:01.082Z,5.89
2019-05-05T04:50:01.074Z,5.85
2019-05-05T04:55:01.034Z,5.87
2019-05-05T05:00:01.112Z,5.85
2019-05-05T05:05:01.060Z,5.90
2019-05-05T05:10:01.101Z,5.88
2019-05-05T05:15:01.194Z,5.79
2019-05-05T05:20:01.058Z,5.79
2019-05-05T05:25:01.046Z,5.84
2019-05-05T05:30:01.046Z,5.93
2019-05-05T05:35:01.051Z,5.97
2019-05-05T05:40:01.073Z,6.02
2019-05-05T05:45:01.086Z,6.03
2019-05-05T05:50:01.057Z,6.01
2019-05-05T05:55:01.049Z,6.04
2019-05-05T06:00:01.081Z,6.01
2019-05-05T06:05:01.500Z,6.05
2019-05-05T06:10:01.043Z,6.06
2019-05-05T06:15:03.699Z,6.13
2019-05-05T06:20:01.154Z,6.17
2019-05-05T06:25:01.069Z,6.12
2019-05-05T06:30:01.485Z,6.15
2019-05-05T06:35:01.065Z,6.22
2019-05-05T06:40:01.058Z,6.22
2019-05-05T06:45:01.497Z,6.25
2019-05-05T06:50:06.473Z,6.32
2019-05-05T06:55:03.638Z,6.30
2019-05-05T07:00:03.494Z,6.37
2019-05-05T07:05:01.202Z,6.40
2019-05-05T07:10:01.100Z,6.45
2019-05-05T07:15:01.430Z,6.50
2019-05-05T07:20:01.070Z,6.57
2019-05-05T07:25:01.067Z,6.57
2019-05-05T07:30:01.228Z,6.60
2019-05-05T07:35:01.061Z,6.51
2019-05-05T07:40:01.057Z,6.62
2019-05-05T07:45:01.045Z,6.66
2019-05-05T07:50:01.046Z,6.77
2019-05-05T07:55:01.056Z,6.69
2019-05-05T08:00:01.132Z,6.78
2019-05-05T08:05:01.548Z,6.82
2019-05-05T08:10:01.058Z,6.89
2019-05-05T08:15:01.085Z,6.95
2019-05-05T08:20:01.077Z,7.08
2019-05-05T08:25:01.052Z,7.20
2019-05-05T08:30:03.095Z,7.32
2019-05-05T08:35:01.237Z,7.44
2019-05-05T08:40:01.369Z,7.38
2019-05-05T08:45:01.085Z,7.63
2019-05-05T08:50:01.103Z,7.84
2019-05-05T08:55:01.103Z,7.97
2019-05-05T09:00:01.110Z,8.44
2019-05-05T09:05:01.079Z,8.58
2019-05-05T09:10:03.732Z,8.68
2019-05-05T09:15:01.416Z,9.05
2019-05-05T09:20:01.074Z,8.65
2019-05-05T09:25:04.375Z,8.78
2019-05-05T09:30:01.093Z,8.73
2019-05-05T09:35:01.086Z,8.56
2019-05-05T09:40:01.580Z,8.62
2019-05-05T09:45:01.590Z,8.78
2019-05-05T09:50:01.071Z,8.62
2019-05-05T09:55:01.100Z,8.69
2019-05-05T10:00:01.073Z,8.70
2019-05-05T10:05:01.061Z,8.92
2019-05-05T10:10:01.059Z,8.77
2019-05-05T10:15:09.870Z,9.06
2019-05-05T10:20:01.557Z,8.93
2019-05-05T10:25:01.119Z,8.82
2019-05-05T10:30:01.115Z,8.76
2019-05-05T10:35:04.188Z,8.82
2019-05-05T10:40:03.513Z,8.98
2019-05-05T10:45:01.514Z,9.02
2019-05-05T10:50:01.680Z,9.08
2019-05-05T10:55:01.439Z,9.09
2019-05-05T11:00:10.127Z,9.10
2019-05-05T11:05:01.073Z,8.87
2019-05-05T11:10:01.094Z,8.92
2019-05-05T11:15:03.931Z,8.67
2019-05-05T11:20:01.132Z,8.48
2019-05-05T11:25:01.603Z,8.13
2019-05-05T11:30:01.142Z,7.92
2019-05-05T11:35:01.754Z,7.95
2019-05-05T11:40:01.525Z,7.90
2019-05-05T11:45:01.483Z,7.95
2019-05-05T11:50:01.136Z,8.10
2019-05-05T11:55:09.822Z,8.18
2019-05-05T12:00:01.180Z,8.34
2019-05-05T12:05:01.089Z,8.30
2019-05-05T12:10:01.423Z,8.38
2019-05-05T12:15:01.101Z,8.45
2019-05-05T12:20:01.217Z,8.34
2019-05-05T12:25:01.121Z,8.20
2019-05-05T12:30:01.107Z,8.31
2019-05-05T12:35:01.114Z,8.33
2019-05-05T12:40:01.075Z,8.39
2019-05-05T12:45:01.097Z,8.34
2019-05-05T12:50:01.037Z,8.21
2019-05-05T12:55:04.333Z,8.25
2019-05-05T13:00:01.081Z,8.14
2019-05-05T13:05:01.192Z,8.27
2019-05-05T13:10:01.159Z,8.23
2019-05-05T13:15:01.045Z,8.16
2019-05-05T13:20:01.134Z,8.24
2019-05-05T13:25:01.056Z,8.34
2019-05-05T13:30:01.138Z,8.22
2019-05-05T13:35:01.129Z,8.04
2019-05-05T13:40:01.089Z,8.06
2019-05-05T13:45:01.101Z,8.06
2019-05-05T13:50:01.102Z,8.00
2019-05-05T13:55:01.068Z,7.96
2019-05-05T14:00:01.114Z,7.95
2019-05-05T14:05:01.072Z,7.93
2019-05-05T14:10:01.079Z,7.92
2019-05-05T14:15:01.060Z,7.79
2019-05-05T14:20:06.728Z,7.82
2019-05-05T14:25:01.040Z,7.77
2019-05-05T14:30:01.113Z,7.68
2019-05-05T14:35:01.274Z,7.65
2019-05-05T14:40:01.041Z,7.66
2019-05-05T14:45:01.336Z,7.69
2019-05-05T14:50:01.271Z,7.64
2019-05-05T14:55:01.088Z,7.68
2019-05-05T15:00:01.297Z,7.65
2019-05-05T15:05:01.043Z,7.63
2019-05-05T15:10:01.827Z,7.64
2019-05-05T15:15:01.065Z,7.63
2019-05-05T15:20:01.326Z,7.64
2019-05-05T15:25:01.061Z,7.56
2019-05-05T15:30:01.074Z,7.51
2019-05-05T15:35:01.064Z,7.45
2019-05-05T15:40:01.084Z,7.41
2019-05-05T15:45:01.126Z,7.38
2019-05-05T15:50:01.082Z,7.25
2019-05-05T15:55:01.071Z,7.23
2019-05-05T16:00:01.060Z,7.22
2019-05-05T16:05:01.035Z,7.20
2019-05-05T16:10:01.094Z,7.23
2019-05-05T16:15:01.066Z,7.21
2019-05-05T16:20:01.069Z,7.21
2019-05-05T16:25:01.061Z,7.20
2019-05-05T16:30:01.432Z,7.13
2019-05-05T16:35:03.608Z,7.09
2019-05-05T16:40:01.097Z,7.03
2019-05-05T16:45:01.357Z,7.00
2019-05-05T16:50:01.064Z,6.96
2019-05-05T16:55:01.090Z,6.93
2019-05-05T17:00:01.165Z,6.92
2019-05-05T17:05:01.471Z,6.90
2019-05-05T17:10:01.045Z,6.90
2019-05-05T17:15:01.757Z,6.93
2019-05-05T17:20:01.031Z,6.94
2019-05-05T17:25:01.089Z,6.92
2019-05-05T17:30:01.051Z,6.93
